Time;durP1;ratioP1;P1;durP2;ratioP2;P2;SDS_P1;SDS_P2;PMS_P1;PMS_P2;Temp;Humidity;BMP_temperature;BMP_pressure;BME280_temperature;BME280_humidity;BME280_pressure;Samples;Min_cycle;Max_cycle;Signal;HPM_P1;HPM_P2
2022/05/08 00:00:00;;;;;;;0.20;0.20;;;;;;;;;;5061725;28;20033;-80
2022/05/08 00:02:26;;;;;;;0.10;0.10;;;;;;;;;;5062421;28;20363;-80
2022/05/08 00:04:53;;;;;;;0.30;0.30;;;;;;;;;;5062104;28;20492;-78
2022/05/08 00:07:19;;;;;;;;;;;;;;;;;;5060930;28;20106;-78
2022/05/08 00:09:45;;;;;;;0.17;0.17;;;;;;;;;;5059502;28;19916;-79
2022/05/08 00:12:12;;;;;;;0.28;0.28;;;;;;;;;;5059598;28;20036;-78
2022/05/08 00:14:38;;;;;;;0.52;0.52;;;;;;;;;;5058925;28;20040;-78
2022/05/08 00:17:05;;;;;;;1.23;0.40;;;;;;;;;;5060345;28;20883;-78
2022/05/08 00:19:31;;;;;;;0.25;0.25;;;;;;;;;;5057743;28;20634;-78
2022/05/08 00:21:57;;;;;;;0.10;0.10;;;;;;;;;;5058915;28;20025;-79
2022/05/08 00:24:23;;;;;;;0.10;0.10;;;;;;;;;;5058482;28;20091;-80
2022/05/08 00:26:50;;;;;;;0.13;0.13;;;;;;;;;;5061092;28;20089;-79
2022/05/08 00:29:16;;;;;;;0.30;0.30;;;;;;;;;;5061869;28;20052;-79
2022/05/08 00:31:43;;;;;;;0.10;0.10;;;;;;;;;;5060409;28;20055;-79
2022/05/08 00:34:09;;;;;;;0.98;0.75;;;;;;;;;;5060177;28;20035;-77
2022/05/08 00:36:35;;;;;;;0.80;0.63;;;;;;;;;;5059167;28;20028;-77
2022/05/08 00:39:01;;;;;;;0.23;0.23;;;;;;;;;;5062317;28;20036;-78
2022/05/08 00:41:27;;;;;;;0.10;0.10;;;;;;;;;;5058930;28;20052;-79
2022/05/08 00:43:54;;;;;;;0.10;0.10;;;;;;;;;;5062209;28;20063;-79
2022/05/08 00:46:20;;;;;;;0.10;0.10;;;;;;;;;;5050433;28;20295;-79
2022/05/08 00:48:46;;;;;;;0.13;0.13;;;;;;;;;;5058783;28;20343;-79
2022/05/08 00:51:13;;;;;;;0.10;0.10;;;;;;;;;;5059329;28;20025;-80
2022/05/08 00:53:51;;;;;;;0.20;0.20;;;;;;;;;;5057541;28;20567;-78
2022/05/08 00:56:17;;;;;;;0.10;0.10;;;;;;;;;;5061511;28;20043;-78
2022/05/08 00:58:44;;;;;;;0.52;0.52;;;;;;;;;;5058257;28;20033;-78
2022/05/08 01:01:10;;;;;;;0.30;0.30;;;;;;;;;;5059664;28;20526;-78
2022/05/08 01:03:38;;;;;;;2.23;0.97;;;;;;;;;;5056589;28;20587;-78
2022/05/08 01:06:05;;;;;;;0.10;0.10;;;;;;;;;;5059517;28;20348;-77
2022/05/08 01:08:33;;;;;;;0.10;0.10;;;;;;;;;;5063308;28;20040;-77
2022/05/08 01:10:59;;;;;;;0.40;0.40;;;;;;;;;;5069647;28;20028;-77
2022/05/08 01:13:25;;;;;;;0.10;0.10;;;;;;;;;;5062798;28;20036;-77
2022/05/08 01:15:54;;;;;;;0.47;0.30;;;;;;;;;;5058670;28;20075;-77
2022/05/08 01:18:20;;;;;;;0.20;0.20;;;;;;;;;;5064870;28;20537;-77
2022/05/08 01:20:46;;;;;;;0.13;0.13;;;;;;;;;;5062909;28;20033;-77
2022/05/08 01:23:13;;;;;;;0.63;0.55;;;;;;;;;;5063884;28;20036;-77
2022/05/08 01:25:48;;;;;;;1.45;0.88;;;;;;;;;;5061251;28;20293;-77
2022/05/08 01:28:14;;;;;;;0.28;0.28;;;;;;;;;;5062983;28;20056;-77
2022/05/08 01:30:41;;;;;;;0.75;0.75;;;;;;;;;;5062871;28;20020;-77
2022/05/08 01:33:07;;;;;;;;;;;;;;;;;;5062759;28;20036;-77
2022/05/08 01:35:34;;;;;;;1.45;0.95;;;;;;;;;;5064100;28;19923;-80
2022/05/08 01:38:00;;;;;;;0.10;0.10;;;;;;;;;;5062527;28;20038;-80
2022/05/08 01:40:26;;;;;;;0.10;0.10;;;;;;;;;;5062921;28;20037;-80
2022/05/08 01:42:52;;;;;;;0.37;0.30;;;;;;;;;;5063536;28;20162;-80
2022/05/08 01:45:18;;;;;;;0.47;0.47;;;;;;;;;;5064137;28;20087;-80
2022/05/08 01:50:29;;;;;;;0.70;0.60;;;;;;;;;;5064157;28;20305;-80
2022/05/08 01:52:55;;;;;;;1.17;0.53;;;;;;;;;;5061859;28;20028;-81
2022/05/08 01:55:21;;;;;;;0.10;0.10;;;;;;;;;;5062238;28;20028;-79
2022/05/08 01:57:47;;;;;;;0.00;0.00;;;;;;;;;;5057226;28;20083;-80
2022/05/08 02:00:13;;;;;;;0.73;0.50;;;;;;;;;;5062350;28;20032;-79
2022/05/08 02:02:40;;;;;;;0.22;0.20;;;;;;;;;;5064080;28;20369;-79
2022/05/08 02:05:06;;;;;;;0.13;0.13;;;;;;;;;;5061743;28;20024;-79
2022/05/08 02:07:32;;;;;;;0.10;0.10;;;;;;;;;;5063141;28;20094;-79
2022/05/08 02:09:58;;;;;;;0.20;0.20;;;;;;;;;;5064701;28;20029;-79
2022/05/08 02:12:25;;;;;;;1.00;0.40;;;;;;;;;;5059947;28;20121;-80
2022/05/08 02:14:51;;;;;;;0.30;0.30;;;;;;;;;;5063662;28;20024;-79
2022/05/08 02:17:18;;;;;;;0.27;0.27;;;;;;;;;;5060356;28;20496;-79
2022/05/08 02:19:43;;;;;;;;;;;;;;;;;;5060856;28;20490;-78
2022/05/08 02:22:09;;;;;;;0.15;0.15;;;;;;;;;;5061214;28;19958;-78
2022/05/08 02:24:35;;;;;;;0.63;0.40;;;;;;;;;;5060574;28;20123;-78
2022/05/08 02:27:02;;;;;;;0.10;0.10;;;;;;;;;;5062768;28;21094;-79
2022/05/08 02:29:29;;;;;;;0.10;0.10;;;;;;;;;;5062831;28;20097;-79
2022/05/08 02:31:55;;;;;;;0.63;0.55;;;;;;;;;;5060722;28;20036;-80
2022/05/08 02:34:21;;;;;;;0.03;0.03;;;;;;;;;;5056736;28;20033;-80
2022/05/08 02:36:47;;;;;;;0.38;0.38;;;;;;;;;;5061718;28;20529;-80
2022/05/08 02:39:13;;;;;;;0.30;0.30;;;;;;;;;;5061609;28;20481;-79
2022/05/08 02:41:39;;;;;;;0.20;0.20;;;;;;;;;;5067082;28;20105;-80
2022/05/08 02:44:05;;;;;;;0.43;0.43;;;;;;;;;;5071993;28;20412;-79
2022/05/08 02:46:31;;;;;;;0.10;0.10;;;;;;;;;;5058964;28;20048;-79
2022/05/08 02:48:57;;;;;;;0.10;0.10;;;;;;;;;;5076198;28;20033;-80
2022/05/08 02:51:23;;;;;;;0.10;0.10;;;;;;;;;;5060720;28;20028;-79
2022/05/08 02:53:49;;;;;;;0.00;0.00;;;;;;;;;;5055889;28;20090;-79
2022/05/08 02:59:00;;;;;;;0.10;0.10;;;;;;;;;;5058942;28;20317;-79
2022/05/08 03:01:26;;;;;;;0.27;0.10;;;;;;;;;;5060320;28;20113;-79
2022/05/08 03:03:52;;;;;;;0.10;0.10;;;;;;;;;;5062604;28;20029;-78
2022/05/08 03:06:18;;;;;;;0.10;0.10;;;;;;;;;;5058417;28;20037;-79
2022/05/08 03:08:44;;;;;;;0.13;0.13;;;;;;;;;;5063653;28;20025;-78
2022/05/08 03:11:25;;;;;;;0.10;0.10;;;;;;;;;;5068596;28;20039;-78
2022/05/08 03:13:52;;;;;;;0.00;0.00;;;;;;;;;;5063419;28;20282;-78
2022/05/08 03:16:18;;;;;;;0.45;0.45;;;;;;;;;;5059140;28;20138;-79
2022/05/08 03:18:45;;;;;;;0.10;0.10;;;;;;;;;;5062701;28;20041;-79
2022/05/08 03:21:12;;;;;;;0.17;0.17;;;;;;;;;;5055479;28;20043;-79
2022/05/08 03:23:39;;;;;;;0.10;0.10;;;;;;;;;;5063500;28;20089;-79
2022/05/08 03:26:04;;;;;;;;;;;;;;;;;;5063801;28;20048;-79
2022/05/08 03:28:31;;;;;;;0.95;0.40;;;;;;;;;;5076096;28;19921;-79
2022/05/08 03:30:59;;;;;;;0.10;0.10;;;;;;;;;;5055890;28;20135;-79
2022/05/08 03:33:25;;;;;;;0.15;0.15;;;;;;;;;;5060714;28;20303;-80
2022/05/08 03:35:51;;;;;;;0.10;0.10;;;;;;;;;;5062502;28;20035;-79
2022/05/08 03:38:21;;;;;;;0.20;0.20;;;;;;;;;;5060887;28;20028;-79
2022/05/08 03:40:47;;;;;;;0.10;0.10;;;;;;;;;;5064184;28;20055;-79
2022/05/08 03:43:13;;;;;;;0.22;0.15;;;;;;;;;;5061359;28;20024;-79
2022/05/08 03:45:39;;;;;;;0.30;0.30;;;;;;;;;;5063209;28;20041;-79
2022/05/08 03:48:06;;;;;;;0.10;0.10;;;;;;;;;;5060911;28;20106;-79
2022/05/08 03:50:32;;;;;;;0.15;0.15;;;;;;;;;;5062046;28;20082;-80
2022/05/08 03:52:59;;;;;;;12.25;0.38;;;;;;;;;;5060839;28;20048;-81
2022/05/08 03:55:25;;;;;;;0.30;0.30;;;;;;;;;;5061661;28;20563;-81
2022/05/08 03:57:52;;;;;;;0.30;0.30;;;;;;;;;;5060213;28;20769;-81
2022/05/08 04:00:18;;;;;;;0.10;0.10;;;;;;;;;;5059666;28;20044;-81
2022/05/08 04:02:44;;;;;;;0.10;0.10;;;;;;;;;;5062210;28;20028;-81
2022/05/08 04:05:11;;;;;;;0.10;0.10;;;;;;;;;;5073731;28;20047;-82
2022/05/08 04:07:40;;;;;;;0.30;0.30;;;;;;;;;;5062280;28;20102;-82
2022/05/08 04:10:07;;;;;;;0.28;0.17;;;;;;;;;;5061435;28;20081;-81
2022/05/08 04:12:33;;;;;;;0.20;0.20;;;;;;;;;;5058699;28;20070;-80
2022/05/08 04:14:59;;;;;;;0.10;0.10;;;;;;;;;;5074790;28;20582;-80
2022/05/08 04:17:28;;;;;;;0.10;0.10;;;;;;;;;;5063080;28;20354;-80
2022/05/08 04:19:55;;;;;;;0.00;0.00;;;;;;;;;;5061021;28;20736;-80
2022/05/08 04:25:07;;;;;;;0.38;0.20;;;;;;;;;;5058989;28;20051;-80
2022/05/08 04:27:35;;;;;;;0.00;0.00;;;;;;;;;;5059552;28;20462;-81
2022/05/08 04:30:01;;;;;;;0.00;0.00;;;;;;;;;;5060887;28;20115;-81
2022/05/08 04:32:27;;;;;;;0.10;0.10;;;;;;;;;;5061252;28;20390;-81
2022/05/08 04:34:53;;;;;;;0.08;0.08;;;;;;;;;;5060735;28;20869;-78
2022/05/08 04:37:19;;;;;;;0.00;0.00;;;;;;;;;;5059172;28;20047;-78
2022/05/08 04:39:45;;;;;;;0.50;0.33;;;;;;;;;;5061217;28;20028;-79
2022/05/08 04:42:11;;;;;;;0.03;0.03;;;;;;;;;;5055578;28;20145;-79
2022/05/08 04:44:37;;;;;;;0.20;0.20;;;;;;;;;;5064232;28;20071;-78
2022/05/08 04:47:04;;;;;;;0.10;0.10;;;;;;;;;;5060405;28;20511;-78
2022/05/08 04:49:30;;;;;;;0.30;0.30;;;;;;;;;;5059231;28;20033;-77
2022/05/08 04:51:56;;;;;;;0.10;0.10;;;;;;;;;;5048534;28;20036;-78
2022/05/08 04:54:25;;;;;;;0.08;0.08;;;;;;;;;;5058543;28;20029;-78
2022/05/08 04:56:54;;;;;;;0.30;0.30;;;;;;;;;;5061252;28;20033;-78
2022/05/08 04:59:20;;;;;;;0.40;0.40;;;;;;;;;;5059084;28;20033;-77
2022/05/08 05:01:46;;;;;;;0.10;0.10;;;;;;;;;;5061457;28;20043;-79
2022/05/08 05:04:12;;;;;;;0.20;0.20;;;;;;;;;;5058427;28;20021;-79
2022/05/08 05:06:40;;;;;;;0.17;0.17;;;;;;;;;;5060033;28;20380;-79
2022/05/08 05:09:07;;;;;;;0.10;0.10;;;;;;;;;;5060212;28;20033;-79
2022/05/08 05:11:33;;;;;;;0.10;0.10;;;;;;;;;;5065113;28;20824;-79
2022/05/08 05:13:59;;;;;;;0.20;0.20;;;;;;;;;;5051536;28;20025;-79
2022/05/08 05:16:25;;;;;;;0.33;0.33;;;;;;;;;;5052685;28;20044;-79
2022/05/08 05:18:51;;;;;;;0.10;0.10;;;;;;;;;;5060221;28;20036;-78
2022/05/08 05:21:17;;;;;;;0.00;0.00;;;;;;;;;;5057850;28;20017;-78
2022/05/08 05:23:43;;;;;;;0.10;0.10;;;;;;;;;;5060859;28;20033;-77
2022/05/08 05:26:09;;;;;;;0.20;0.20;;;;;;;;;;5062148;28;20073;-78
2022/05/08 05:28:35;;;;;;;0.10;0.10;;;;;;;;;;5062257;28;20480;-78
2022/05/08 05:31:01;;;;;;;0.20;0.20;;;;;;;;;;5059983;28;20583;-77
2022/05/08 05:33:27;;;;;;;0.00;0.00;;;;;;;;;;5057577;28;20404;-78
2022/05/08 05:35:53;;;;;;;0.10;0.10;;;;;;;;;;5062899;28;20040;-78
2022/05/08 05:38:19;;;;;;;0.17;0.15;;;;;;;;;;5078037;28;20047;-81
2022/05/08 05:40:45;;;;;;;0.10;0.10;;;;;;;;;;5062094;28;20846;-80
2022/05/08 05:43:11;;;;;;;0.10;0.10;;;;;;;;;;5062592;28;20025;-81
2022/05/08 05:45:39;;;;;;;0.10;0.10;;;;;;;;;;5055154;28;20812;-80
2022/05/08 05:48:05;;;;;;;0.00;0.00;;;;;;;;;;5061905;28;20032;-80
2022/05/08 05:50:31;;;;;;;0.43;0.20;;;;;;;;;;5056969;28;20017;-80
2022/05/08 05:52:57;;;;;;;0.15;0.15;;;;;;;;;;5057627;28;20488;-80
2022/05/08 05:55:23;;;;;;;0.03;0.03;;;;;;;;;;5061395;28;20025;-83
2022/05/08 05:57:49;;;;;;;0.10;0.10;;;;;;;;;;5070223;28;20746;-78
2022/05/08 06:00:17;;;;;;;0.17;0.17;;;;;;;;;;5062943;28;20357;-81
2022/05/08 06:02:43;;;;;;;0.13;0.13;;;;;;;;;;5065746;28;20274;-82
2022/05/08 06:05:09;;;;;;;;;;;;;;;;;;5067391;28;20039;-81
2022/05/08 06:07:36;;;;;;;0.43;0.43;;;;;;;;;;5060694;28;19920;-80
2022/05/08 06:10:03;;;;;;;0.10;0.10;;;;;;;;;;5061348;28;20016;-83
2022/05/08 06:12:29;;;;;;;0.00;0.00;;;;;;;;;;5063762;28;20040;-83
2022/05/08 06:14:55;;;;;;;0.25;0.25;;;;;;;;;;5059844;28;20024;-83
2022/05/08 06:17:21;;;;;;;0.10;0.10;;;;;;;;;;5063746;28;20047;-83
2022/05/08 06:19:47;;;;;;;0.30;0.30;;;;;;;;;;5062687;28;20028;-83
2022/05/08 06:22:13;;;;;;;0.08;0.08;;;;;;;;;;5069075;28;20075;-83
2022/05/08 06:24:39;;;;;;;0.00;0.00;;;;;;;;;;5047180;28;20040;-83
2022/05/08 06:27:06;;;;;;;0.00;0.00;;;;;;;;;;5064926;28;20056;-82
2022/05/08 06:29:32;;;;;;;0.00;0.00;;;;;;;;;;5061923;28;20032;-82
2022/05/08 06:31:58;;;;;;;0.60;0.28;;;;;;;;;;5062072;28;20407;-83
2022/05/08 06:34:26;;;;;;;0.00;0.00;;;;;;;;;;5069897;28;20033;-83
2022/05/08 06:36:52;;;;;;;0.03;0.03;;;;;;;;;;5061356;28;20024;-85
2022/05/08 06:39:18;;;;;;;0.03;0.03;;;;;;;;;;5060488;28;20059;-84
2022/05/08 06:41:44;;;;;;;0.00;0.00;;;;;;;;;;5063341;28;20032;-84
2022/05/08 06:44:10;;;;;;;0.03;0.03;;;;;;;;;;5063342;28;20035;-82
2022/05/08 06:46:36;;;;;;;0.00;0.00;;;;;;;;;;5061739;28;20048;-81
2022/05/08 06:49:05;;;;;;;0.00;0.00;;;;;;;;;;5061255;28;20024;-82
2022/05/08 06:51:31;;;;;;;0.15;0.15;;;;;;;;;;5061874;28;20032;-81
2022/05/08 06:53:57;;;;;;;0.00;0.00;;;;;;;;;;5063534;28;20028;-82
2022/05/08 06:56:26;;;;;;;0.13;0.13;;;;;;;;;;5062886;28;20048;-84
2022/05/08 07:01:42;;;;;;;0.00;0.00;;;;;;;;;;5058317;28;20044;-84
2022/05/08 07:04:10;;;;;;;0.15;0.03;;;;;;;;;;5060846;28;20029;-83
2022/05/08 07:06:39;;;;;;;0.08;0.00;;;;;;;;;;5064326;28;20068;-83
2022/05/08 07:09:06;;;;;;;0.10;0.10;;;;;;;;;;5061897;28;20454;-83
2022/05/08 07:11:32;;;;;;;0.10;0.10;;;;;;;;;;5059490;28;20020;-82
2022/05/08 07:13:59;;;;;;;0.00;0.00;;;;;;;;;;5063026;28;20041;-82
2022/05/08 07:16:25;;;;;;;0.20;0.20;;;;;;;;;;5061231;28;20058;-84
2022/05/08 07:18:51;;;;;;;0.20;0.10;;;;;;;;;;5065711;28;20036;-82
2022/05/08 07:21:19;;;;;;;0.08;0.08;;;;;;;;;;5060104;28;20036;-81
2022/05/08 07:23:45;;;;;;;0.00;0.00;;;;;;;;;;5063131;28;20032;-83
2022/05/08 07:26:11;;;;;;;0.00;0.00;;;;;;;;;;5079045;28;20033;-83
2022/05/08 07:28:37;;;;;;;0.00;0.00;;;;;;;;;;5062568;28;20849;-83
2022/05/08 07:31:04;;;;;;;0.08;0.00;;;;;;;;;;5058446;28;20032;-85
2022/05/08 07:33:29;;;;;;;;;;;;;;;;;;5062778;28;20037;-83
2022/05/08 07:36:14;;;;;;;0.05;0.05;;;;;;;;;;5062531;28;19909;-83
2022/05/08 07:38:44;;;;;;;0.00;0.00;;;;;;;;;;5076662;28;20040;-82
2022/05/08 07:41:15;;;;;;;0.00;0.00;;;;;;;;;;5077356;28;20936;-83
2022/05/08 07:43:41;;;;;;;0.20;0.13;;;;;;;;;;5060526;28;20038;-85
2022/05/08 07:46:07;;;;;;;;;;;;;;;;;;5069181;28;20048;-84
2022/05/08 07:48:33;;;;;;;0.00;0.00;;;;;;;;;;5062455;28;19912;-83
2022/05/08 07:51:00;;;;;;;0.00;0.00;;;;;;;;;;5061039;28;20492;-83
2022/05/08 07:53:27;;;;;;;0.40;0.40;;;;;;;;;;5062173;28;20044;-83
2022/05/08 07:55:53;;;;;;;0.70;0.40;;;;;;;;;;5061873;28;20029;-83
2022/05/08 07:58:20;;;;;;;0.25;0.20;;;;;;;;;;5061381;28;20039;-86
2022/05/08 08:00:46;;;;;;;0.15;0.15;;;;;;;;;;5060079;28;20052;-83
2022/05/08 08:03:12;;;;;;;0.10;0.10;;;;;;;;;;5076244;28;20029;-83
2022/05/08 08:05:39;;;;;;;0.10;0.10;;;;;;;;;;5062561;28;20174;-83
2022/05/08 08:08:05;;;;;;;0.00;0.00;;;;;;;;;;5063199;28;20032;-82
2022/05/08 08:10:32;;;;;;;2.35;1.27;;;;;;;;;;5060515;28;20032;-83
2022/05/08 08:12:58;;;;;;;0.00;0.00;;;;;;;;;;5073072;28;20032;-83
2022/05/08 08:15:24;;;;;;;;;;;;;;;;;;5061877;28;20032;-83
2022/05/08 08:17:50;;;;;;;0.20;0.20;;;;;;;;;;5062483;28;20398;-83
2022/05/08 08:20:16;;;;;;;;;;;;;;;;;;5059528;28;20034;-83
2022/05/08 08:22:42;;;;;;;0.20;0.20;;;;;;;;;;5061385;28;20669;-83
2022/05/08 08:25:08;;;;;;;0.00;0.00;;;;;;;;;;5065303;28;20047;-84
2022/05/08 08:27:34;;;;;;;0.00;0.00;;;;;;;;;;5062500;28;20154;-83
2022/05/08 08:30:01;;;;;;;;;;;;;;;;;;5077633;28;20115;-82
2022/05/08 08:32:27;;;;;;;0.00;0.00;;;;;;;;;;5054912;28;19905;-85
2022/05/08 08:34:53;;;;;;;0.00;0.00;;;;;;;;;;5060822;28;20090;-82
2022/05/08 08:37:19;;;;;;;;;;;;;;;;;;5058776;28;20039;-83
2022/05/08 08:39:46;;;;;;;0.10;0.10;;;;;;;;;;5064063;28;19916;-83
2022/05/08 08:42:19;;;;;;;0.32;0.22;;;;;;;;;;5062112;28;20036;-85
2022/05/08 08:47:43;;;;;;;0.40;0.32;;;;;;;;;;5063156;28;20432;-82
2022/05/08 08:50:09;;;;;;;0.25;0.25;;;;;;;;;;5058560;28;20503;-85
2022/05/08 08:52:36;;;;;;;0.20;0.17;;;;;;;;;;5059501;28;20517;-82
2022/05/08 08:55:04;;;;;;;0.00;0.00;;;;;;;;;;5056444;28;20108;-82
2022/05/08 08:57:30;;;;;;;0.10;0.00;;;;;;;;;;5060537;28;20648;-82
2022/05/08 08:59:56;;;;;;;0.10;0.10;;;;;;;;;;5060372;28;20036;-81
2022/05/08 09:02:22;;;;;;;0.00;0.00;;;;;;;;;;5062178;28;20040;-84
2022/05/08 09:04:51;;;;;;;1.35;0.20;;;;;;;;;;5058969;28;20036;-84
2022/05/08 09:07:39;;;;;;;0.10;0.10;;;;;;;;;;5058900;28;20729;-83
2022/05/08 09:10:14;;;;;;;0.17;0.17;;;;;;;;;;5056894;28;20037;-82
2022/05/08 09:12:52;;;;;;;0.05;0.00;;;;;;;;;;5059305;28;20473;-82
2022/05/08 09:15:29;;;;;;;0.00;0.00;;;;;;;;;;5061894;28;20028;-83
2022/05/08 09:17:59;;;;;;;0.03;0.03;;;;;;;;;;5062268;28;20029;-83
2022/05/08 09:20:26;;;;;;;0.30;0.30;;;;;;;;;;5059467;28;20037;-83
2022/05/08 09:23:02;;;;;;;0.13;0.13;;;;;;;;;;5060095;28;20491;-80
2022/05/08 09:25:44;;;;;;;0.32;0.30;;;;;;;;;;5058637;28;20028;-83
2022/05/08 09:28:17;;;;;;;0.00;0.00;;;;;;;;;;5057075;28;20136;-84
2022/05/08 09:31:09;;;;;;;0.00;0.00;;;;;;;;;;5061456;28;20028;-80
2022/05/08 09:33:40;;;;;;;0.10;0.10;;;;;;;;;;5057398;28;20164;-81
2022/05/08 09:36:09;;;;;;;0.10;0.10;;;;;;;;;;5063338;28;20508;-82
2022/05/08 09:38:48;;;;;;;0.00;0.00;;;;;;;;;;5065727;28;20024;-83
2022/05/08 09:41:18;;;;;;;0.00;0.00;;;;;;;;;;5078052;28;20024;-84
2022/05/08 09:43:44;;;;;;;0.25;0.15;;;;;;;;;;5060804;28;20055;-82
2022/05/08 09:46:11;;;;;;;0.00;0.00;;;;;;;;;;5062609;28;20080;-82
2022/05/08 09:48:37;;;;;;;0.10;0.10;;;;;;;;;;5062011;28;20035;-83
2022/05/08 09:51:04;;;;;;;0.00;0.00;;;;;;;;;;5062049;28;20033;-84
2022/05/08 09:53:31;;;;;;;0.10;0.10;;;;;;;;;;5065259;28;20013;-86
2022/05/08 09:55:58;;;;;;;0.40;0.40;;;;;;;;;;5062147;28;20051;-83
2022/05/08 09:58:25;;;;;;;0.30;0.30;;;;;;;;;;5062483;28;20036;-83
2022/05/08 10:00:52;;;;;;;0.28;0.28;;;;;;;;;;5063222;28;20047;-83
2022/05/08 10:03:19;;;;;;;5.75;0.38;;;;;;;;;;5060468;28;20029;-83
2022/05/08 10:05:45;;;;;;;0.10;0.10;;;;;;;;;;5063634;28;20036;-84
2022/05/08 10:08:15;;;;;;;0.17;0.17;;;;;;;;;;5062870;28;20062;-83
2022/05/08 10:14:00;;;;;;;0.00;0.00;;;;;;;;;;5058921;28;20591;-84
2022/05/08 10:16:45;;;;;;;0.00;0.00;;;;;;;;;;5066594;28;20043;-83
2022/05/08 10:19:31;;;;;;;0.20;0.03;;;;;;;;;;5057678;28;20024;-84
2022/05/08 10:22:02;;;;;;;0.08;0.03;;;;;;;;;;5047174;28;20043;-83
2022/05/08 10:24:33;;;;;;;0.38;0.10;;;;;;;;;;5060568;28;20473;-84
2022/05/08 10:27:18;;;;;;;0.05;0.05;;;;;;;;;;5060416;28;20523;-84
2022/05/08 10:30:04;;;;;;;0.10;0.10;;;;;;;;;;5060281;28;20034;-83
2022/05/08 10:32:33;;;;;;;0.35;0.35;;;;;;;;;;5043917;28;20317;-83
2022/05/08 10:35:06;;;;;;;0.10;0.10;;;;;;;;;;5061932;28;20431;-83
2022/05/08 10:37:32;;;;;;;0.65;0.20;;;;;;;;;;5056028;28;20040;-83
2022/05/08 10:39:58;;;;;;;0.00;0.00;;;;;;;;;;5058941;28;20035;-82
2022/05/08 10:42:24;;;;;;;;;;;;;;;;;;5060757;28;20053;-83
2022/05/08 10:44:50;;;;;;;0.00;0.00;;;;;;;;;;5061048;28;20319;-82
2022/05/08 10:47:36;;;;;;;0.10;0.10;;;;;;;;;;5062271;28;20051;-82
2022/05/08 10:50:10;;;;;;;0.10;0.10;;;;;;;;;;5060136;28;20784;-82
2022/05/08 10:52:41;;;;;;;11.05;0.55;;;;;;;;;;5056368;28;20046;-83
2022/05/08 10:55:08;;;;;;;0.20;0.20;;;;;;;;;;5055584;28;20031;-82
2022/05/08 10:57:36;;;;;;;0.38;0.25;;;;;;;;;;5061614;28;20044;-82
2022/05/08 11:00:03;;;;;;;0.08;0.08;;;;;;;;;;5060715;28;20035;-82
2022/05/08 11:02:42;;;;;;;0.40;0.10;;;;;;;;;;5062368;28;20125;-82
2022/05/08 11:05:08;;;;;;;0.10;0.10;;;;;;;;;;5060500;28;20116;-82
2022/05/08 11:07:34;;;;;;;0.00;0.00;;;;;;;;;;5059228;28;20051;-82
2022/05/08 11:10:01;;;;;;;0.88;0.30;;;;;;;;;;5059241;28;20060;-82
2022/05/08 11:12:28;;;;;;;1.00;0.75;;;;;;;;;;5056890;28;20033;-82
2022/05/08 11:15:07;;;;;;;0.25;0.25;;;;;;;;;;5067279;28;20028;-82
2022/05/08 11:17:33;;;;;;;0.03;0.03;;;;;;;;;;5062031;28;20530;-82
2022/05/08 11:19:59;;;;;;;0.10;0.10;;;;;;;;;;5060468;28;20126;-84
2022/05/08 11:22:26;;;;;;;0.08;0.08;;;;;;;;;;5059382;28;20181;-85
2022/05/08 11:24:52;;;;;;;;;;;;;;;;;;5061001;28;20032;-83
2022/05/08 11:27:17;;;;;;;;;;;;;;;;;;5059900;28;20378;-82
2022/05/08 11:29:44;;;;;;;;;;;;;;;;;;5074531;28;20030;-83
2022/05/08 11:37:59;;;;;;;1.55;0.70;;;;;;;;;;5059106;28;20277;-84
2022/05/08 11:40:26;;;;;;;0.10;0.10;;;;;;;;;;5058305;28;20397;-83
2022/05/08 11:42:52;;;;;;;0.00;0.00;;;;;;;;;;5077872;28;20021;-83
2022/05/08 11:45:18;;;;;;;0.00;0.00;;;;;;;;;;5060666;28;20037;-84
2022/05/08 11:47:51;;;;;;;0.22;0.22;;;;;;;;;;5060692;28;20039;-83
2022/05/08 11:50:17;;;;;;;0.10;0.10;;;;;;;;;;5059856;28;20031;-83
2022/05/08 11:52:44;;;;;;;0.52;0.45;;;;;;;;;;5051804;28;20060;-84
2022/05/08 11:55:10;;;;;;;0.10;0.10;;;;;;;;;;5054651;28;20107;-83
2022/05/08 11:57:45;;;;;;;0.20;0.20;;;;;;;;;;5056658;28;20071;-83
2022/05/08 12:00:14;;;;;;;0.15;0.15;;;;;;;;;;5059218;28;20036;-84
2022/05/08 12:02:47;;;;;;;0.57;0.30;;;;;;;;;;5061511;28;20036;-85
2022/05/08 12:05:17;;;;;;;0.20;0.20;;;;;;;;;;5060839;28;20036;-85
2022/05/08 12:07:45;;;;;;;0.10;0.10;;;;;;;;;;5058659;28;20083;-84
2022/05/08 12:10:12;;;;;;;0.30;0.30;;;;;;;;;;5056256;28;20044;-84
2022/05/08 12:12:39;;;;;;;0.38;0.38;;;;;;;;;;5056235;28;20032;-84
2022/05/08 12:15:09;;;;;;;0.10;0.10;;;;;;;;;;5058769;28;20036;-85
2022/05/08 12:17:45;;;;;;;0.10;0.10;;;;;;;;;;5060851;28;20034;-84
2022/05/08 12:20:16;;;;;;;1.77;0.75;;;;;;;;;;5067765;28;20040;-84
2022/05/08 12:22:43;;;;;;;0.00;0.00;;;;;;;;;;5059145;28;20037;-85
2022/05/08 12:25:11;;;;;;;0.00;0.00;;;;;;;;;;5056359;28;20032;-85
2022/05/08 12:27:37;;;;;;;1.38;0.30;;;;;;;;;;5056132;28;20040;-85
2022/05/08 12:30:06;;;;;;;0.00;0.00;;;;;;;;;;5060211;28;20032;-84
2022/05/08 12:32:35;;;;;;;0.10;0.10;;;;;;;;;;5050558;28;20523;-84
2022/05/08 12:35:01;;;;;;;0.10;0.10;;;;;;;;;;5061414;28;20443;-84
2022/05/08 12:37:28;;;;;;;0.28;0.28;;;;;;;;;;5056796;28;20101;-85
2022/05/08 12:39:54;;;;;;;0.00;0.00;;;;;;;;;;5061624;28;20032;-85
2022/05/08 12:42:20;;;;;;;0.10;0.10;;;;;;;;;;5058226;28;20113;-85
2022/05/08 12:44:46;;;;;;;0.88;0.52;;;;;;;;;;5059872;28;20047;-85
2022/05/08 12:47:13;;;;;;;0.20;0.20;;;;;;;;;;5059804;28;20049;-84
2022/05/08 12:49:39;;;;;;;0.10;0.10;;;;;;;;;;5057050;28;20518;-86
2022/05/08 12:52:06;;;;;;;0.28;0.28;;;;;;;;;;5058394;28;20029;-85
2022/05/08 12:54:33;;;;;;;1.85;0.35;;;;;;;;;;5059810;28;20036;-86
2022/05/08 12:57:08;;;;;;;0.10;0.10;;;;;;;;;;5059239;28;20036;-85
2022/05/08 12:59:46;;;;;;;0.10;0.10;;;;;;;;;;5059120;28;20032;-85
2022/05/08 13:02:16;;;;;;;0.17;0.17;;;;;;;;;;5060331;28;20028;-85
2022/05/08 13:04:43;;;;;;;0.20;0.15;;;;;;;;;;5064317;28;20032;-85
2022/05/08 13:07:09;;;;;;;0.65;0.32;;;;;;;;;;5064374;28;20068;-85
2022/05/08 13:09:36;;;;;;;1.35;0.22;;;;;;;;;;5063516;28;20529;-85
2022/05/08 13:12:06;;;;;;;0.00;0.00;;;;;;;;;;5062382;28;20036;-85
2022/05/08 13:14:32;;;;;;;0.10;0.10;;;;;;;;;;5064000;28;20029;-85
2022/05/08 13:16:59;;;;;;;;;;;;;;;;;;5063865;28;20101;-85
2022/05/08 13:19:27;;;;;;;0.00;0.00;;;;;;;;;;5063698;28;19923;-86
2022/05/08 13:21:53;;;;;;;0.10;0.10;;;;;;;;;;5063266;28;20549;-85
2022/05/08 13:24:19;;;;;;;0.10;0.10;;;;;;;;;;5061186;28;20028;-84
2022/05/08 13:26:46;;;;;;;0.35;0.35;;;;;;;;;;5062805;28;20036;-85
2022/05/08 13:29:13;;;;;;;0.00;0.00;;;;;;;;;;5063418;28;20522;-85
2022/05/08 13:31:42;;;;;;;0.20;0.20;;;;;;;;;;5064425;28;20504;-83
2022/05/08 13:34:09;;;;;;;1.17;0.43;;;;;;;;;;5065406;28;20049;-81
2022/05/08 13:36:35;;;;;;;0.00;0.00;;;;;;;;;;5060754;28;20702;-82
2022/05/08 13:39:01;;;;;;;2.45;0.30;;;;;;;;;;5065160;28;20111;-81
2022/05/08 13:41:27;;;;;;;0.63;0.47;;;;;;;;;;5061738;28;20048;-82
2022/05/08 13:43:53;;;;;;;1.75;0.22;;;;;;;;;;5062641;28;20028;-84
2022/05/08 13:46:19;;;;;;;0.63;0.20;;;;;;;;;;5058658;28;20401;-82
2022/05/08 13:48:45;;;;;;;0.00;0.00;;;;;;;;;;5060218;28;20622;-89
2022/05/08 13:51:13;;;;;;;0.57;0.57;;;;;;;;;;5078370;28;20033;-83
2022/05/08 13:53:39;;;;;;;1.20;0.43;;;;;;;;;;5059331;28;20052;-84
2022/05/08 13:56:06;;;;;;;0.57;0.57;;;;;;;;;;5063677;28;20031;-84
2022/05/08 13:58:32;;;;;;;0.05;0.05;;;;;;;;;;5063661;28;20032;-85
2022/05/08 14:00:58;;;;;;;0.00;0.00;;;;;;;;;;5064777;28;20103;-82
2022/05/08 14:03:24;;;;;;;0.17;0.17;;;;;;;;;;5053787;28;20046;-81
2022/05/08 14:05:51;;;;;;;0.00;0.00;;;;;;;;;;5065216;28;20127;-85
2022/05/08 14:08:17;;;;;;;;;;;;;;;;;;5059318;28;20043;-85
2022/05/08 14:10:44;;;;;;;0.15;0.15;;;;;;;;;;5079416;28;20372;-89
2022/05/08 14:13:10;;;;;;;0.00;0.00;;;;;;;;;;5060117;28;20082;-88
2022/05/08 14:15:38;;;;;;;0.22;0.17;;;;;;;;;;5057216;28;20518;-85
2022/05/08 14:18:04;;;;;;;0.00;0.00;;;;;;;;;;5079426;28;20040;-86
2022/05/08 14:20:30;;;;;;;0.00;0.00;;;;;;;;;;5074282;28;20488;-86
2022/05/08 14:22:56;;;;;;;2.03;0.80;;;;;;;;;;5063434;28;20035;-86
2022/05/08 14:25:22;;;;;;;;;;;;;;;;;;5065942;28;20211;-85
2022/05/08 14:27:49;;;;;;;0.00;0.00;;;;;;;;;;5077156;28;20459;-85
2022/05/08 14:30:15;;;;;;;0.20;0.20;;;;;;;;;;5063426;28;20044;-86
2022/05/08 14:38:13;;;;;;;0.13;0.13;;;;;;;;;;5068765;28;20039;-92
2022/05/08 14:40:39;;;;;;;0.00;0.00;;;;;;;;;;5060026;28;20056;-90
2022/05/08 14:43:06;;;;;;;0.20;0.20;;;;;;;;;;5064097;28;20127;-86
2022/05/08 14:45:33;;;;;;;0.30;0.25;;;;;;;;;;5064147;28;20554;-87
2022/05/08 14:47:59;;;;;;;0.10;0.10;;;;;;;;;;5061122;28;20093;-86
2022/05/08 14:50:29;;;;;;;0.10;0.10;;;;;;;;;;5062795;28;20044;-86
2022/05/08 14:52:55;;;;;;;0.00;0.00;;;;;;;;;;5059970;28;20033;-87
2022/05/08 14:55:21;;;;;;;0.25;0.15;;;;;;;;;;5054081;28;20028;-87
2022/05/08 14:57:48;;;;;;;0.00;0.00;;;;;;;;;;5064197;28;20024;-86
2022/05/08 15:00:14;;;;;;;0.28;0.28;;;;;;;;;;5062547;28;20029;-87
2022/05/08 15:02:41;;;;;;;0.00;0.00;;;;;;;;;;5064194;28;20052;-88
2022/05/08 15:05:07;;;;;;;0.22;0.22;;;;;;;;;;5058557;28;20104;-89
2022/05/08 15:07:33;;;;;;;0.52;0.30;;;;;;;;;;5061450;28;20068;-89
2022/05/08 15:09:59;;;;;;;0.22;0.22;;;;;;;;;;5063530;28;20086;-88
2022/05/08 15:12:25;;;;;;;0.20;0.20;;;;;;;;;;5061708;28;20037;-89
2022/05/08 15:14:51;;;;;;;0.30;0.22;;;;;;;;;;5063396;28;20622;-86
2022/05/08 15:17:17;;;;;;;0.15;0.15;;;;;;;;;;5060712;28;20037;-86